Time;durP1;ratioP1;P1;durP2;ratioP2;P2;SDS_P1;SDS_P2;PMS_P1;PMS_P2;Temp;Humidity;BMP_temperature;BMP_pressure;BME280_temperature;BME280_humidity;BME280_pressure;Samples;Min_cycle;Max_cycle;Signal;HPM_P1;HPM_P2
2022/10/17 00:01:54;;;;;;;;;;;21.10;48.30;;;;;;5068699;28;19974;-63
2022/10/17 00:04:22;;;;;;;;;;;21.10;48.40;;;;;;5068365;28;19928;-64
2022/10/17 00:06:49;;;;;;;;;;;21.10;48.30;;;;;;5065907;28;20007;-65
2022/10/17 00:09:16;;;;;;;;;;;21.10;48.40;;;;;;5069308;28;19924;-64
2022/10/17 00:11:42;;;;;;;;;;;21.10;48.40;;;;;;5065913;28;19921;-64
2022/10/17 00:14:09;;;;;;;;;;;21.10;48.30;;;;;;5066771;28;19920;-64
2022/10/17 00:16:36;;;;;;;;;;;21.10;48.30;;;;;;5064420;28;19931;-64
2022/10/17 00:19:03;;;;;;;;;;;21.10;48.40;;;;;;5068434;28;19999;-64
2022/10/17 00:21:31;;;;;;;;;;;21.10;48.40;;;;;;5064063;28;19964;-64
2022/10/17 00:23:58;;;;;;;;;;;21.10;48.40;;;;;;5077009;28;20011;-64
2022/10/17 00:26:26;;;;;;;;;;;21.10;48.40;;;;;;5066769;28;19924;-65
2022/10/17 00:28:53;;;;;;;;;;;21.10;48.40;;;;;;5084689;28;19927;-65
2022/10/17 00:31:20;;;;;;;;;;;21.10;48.30;;;;;;5083327;28;19920;-65
2022/10/17 00:33:46;;;;;;;;;;;21.10;48.40;;;;;;5065224;28;19974;-64
2022/10/17 00:36:14;;;;;;;;;;;21.10;48.40;;;;;;5068165;28;19920;-65
2022/10/17 00:38:42;;;;;;;;;;;21.10;48.40;;;;;;5084587;28;19955;-64
2022/10/17 00:41:10;;;;;;;;;;;21.10;48.40;;;;;;5067345;28;19920;-65
2022/10/17 00:43:49;;;;;;;;;;;21.10;48.40;;;;;;5084133;28;19952;-64
2022/10/17 00:46:16;;;;;;;;;;;21.20;48.50;;;;;;5080922;28;20007;-64
2022/10/17 00:48:43;;;;;;;;;;;21.10;48.40;;;;;;5067669;28;19960;-65
2022/10/17 00:51:10;;;;;;;;;;;21.10;48.40;;;;;;5061803;28;19925;-65
2022/10/17 00:53:36;;;;;;;;;;;21.10;48.40;;;;;;5068927;28;19966;-64
2022/10/17 00:56:06;;;;;;;;;;;21.10;48.40;;;;;;5065046;28;19920;-65
2022/10/17 00:58:32;;;;;;;;;;;21.10;48.40;;;;;;5068144;28;19928;-64
2022/10/17 01:00:59;;;;;;;;;;;21.10;48.40;;;;;;5066632;28;19960;-65
2022/10/17 01:03:30;;;;;;;;;;;21.10;48.40;;;;;;5066080;28;19932;-64
2022/10/17 01:05:56;;;;;;;;;;;21.10;48.40;;;;;;5064435;28;19935;-64
2022/10/17 01:08:23;;;;;;;;;;;21.10;48.40;;;;;;5067610;28;19982;-64
2022/10/17 01:10:53;;;;;;;;;;;21.10;48.40;;;;;;5066918;28;20007;-65
2022/10/17 01:13:21;;;;;;;;;;;21.10;48.40;;;;;;5067420;28;19921;-65
2022/10/17 01:15:54;;;;;;;;;;;21.10;48.40;;;;;;5061405;28;20381;-66
2022/10/17 01:18:24;;;;;;;;;;;21.10;48.40;;;;;;5071149;28;19956;-64
2022/10/17 01:21:04;;;;;;;;;;;21.10;48.40;;;;;;5083381;28;19927;-64
2022/10/17 01:23:37;;;;;;;;;;;21.10;48.40;;;;;;5068904;28;19928;-64
2022/10/17 01:26:05;;;;;;;;;;;21.10;48.40;;;;;;5086867;28;19966;-66
2022/10/17 01:28:46;;;;;;;;;;;21.10;48.40;;;;;;5087210;28;20015;-64
2022/10/17 01:31:14;;;;;;;;;;;21.10;48.40;;;;;;5064871;28;19967;-64
2022/10/17 01:33:44;;;;;;;;;;;21.10;48.40;;;;;;5087400;28;20019;-64
2022/10/17 01:36:11;;;;;;;;;;;21.10;48.50;;;;;;5084072;28;19966;-64
2022/10/17 01:38:39;;;;;;;;;;;21.10;48.40;;;;;;5069961;28;19966;-64
2022/10/17 01:41:06;;;;;;;;;;;21.10;48.40;;;;;;5068243;28;19999;-65
2022/10/17 01:43:34;;;;;;;;;;;21.10;48.40;;;;;;5070783;28;19920;-64
2022/10/17 01:46:01;;;;;;;;;;;21.10;48.40;;;;;;5068159;28;20290;-64
2022/10/17 01:48:30;;;;;;;;;;;21.10;48.40;;;;;;5067813;28;19948;-65
2022/10/17 01:50:57;;;;;;;;;;;21.10;48.40;;;;;;5085375;28;20369;-64
2022/10/17 01:53:24;;;;;;;;;;;21.10;48.40;;;;;;5086504;28;20187;-64
2022/10/17 01:55:51;;;;;;;;;;;21.10;48.40;;;;;;5069650;28;19920;-64
2022/10/17 01:58:24;;;;;;;;;;;21.10;48.40;;;;;;5068233;28;20014;-65
2022/10/17 02:00:56;;;;;;;;;;;21.10;48.50;;;;;;5066219;28;19931;-65
2022/10/17 02:03:23;;;;;;;;;;;21.10;48.50;;;;;;5071227;28;20495;-65
2022/10/17 02:05:51;;;;;;;;;;;21.10;48.40;;;;;;5085691;28;19920;-64
2022/10/17 02:08:25;;;;;;;;;;;21.10;48.50;;;;;;5069658;28;19927;-64
2022/10/17 02:10:54;;;;;;;;;;;21.10;48.50;;;;;;5085188;28;19920;-64
2022/10/17 02:13:23;;;;;;;;;;;21.10;48.50;;;;;;5086976;28;20374;-64
2022/10/17 02:16:00;;;;;;;;;;;21.10;48.50;;;;;;5065174;28;19954;-65
2022/10/17 02:18:32;;;;;;;;;;;21.10;48.50;;;;;;5072207;28;19925;-66
2022/10/17 02:21:00;;;;;;;;;;;21.10;48.50;;;;;;5067597;28;19978;-65
2022/10/17 02:23:27;;;;;;;;;;;21.10;48.50;;;;;;5084234;28;19924;-64
2022/10/17 02:25:59;;;;;;;;;;;21.10;48.50;;;;;;5068821;28;19950;-64
2022/10/17 02:28:28;;;;;;;;;;;21.10;48.50;;;;;;5085115;28;19933;-64
2022/10/17 02:30:55;;;;;;;;;;;21.10;48.50;;;;;;5071151;28;19956;-64
2022/10/17 02:33:24;;;;;;;;;;;21.10;48.50;;;;;;5071706;28;20366;-64
2022/10/17 02:35:51;;;;;;;;;;;21.10;48.50;;;;;;5070220;28;19920;-64
2022/10/17 02:38:21;;;;;;;;;;;21.10;48.50;;;;;;5068233;28;20025;-64
2022/10/17 02:40:48;;;;;;;;;;;21.10;48.60;;;;;;5086187;28;19956;-64
2022/10/17 02:43:14;;;;;;;;;;;21.10;48.50;;;;;;5069429;28;20023;-64
2022/10/17 02:45:41;;;;;;;;;;;21.10;48.60;;;;;;5068792;28;19921;-64
2022/10/17 02:48:12;;;;;;;;;;;21.10;48.60;;;;;;5067382;28;19956;-63
2022/10/17 02:50:42;;;;;;;;;;;21.10;48.60;;;;;;5087778;28;19924;-63
2022/10/17 02:53:10;;;;;;;;;;;21.10;48.60;;;;;;5067252;28;19928;-64
2022/10/17 02:55:40;;;;;;;;;;;21.10;48.60;;;;;;5083845;28;20030;-63
2022/10/17 02:58:08;;;;;;;;;;;21.10;48.60;;;;;;5065771;28;19924;-64
2022/10/17 03:00:34;;;;;;;;;;;21.10;48.60;;;;;;5086272;28;20027;-64
2022/10/17 03:03:01;;;;;;;;;;;21.10;48.60;;;;;;5066850;28;19928;-64
2022/10/17 03:05:28;;;;;;;;;;;21.10;48.60;;;;;;5070321;28;19966;-64
2022/10/17 03:07:55;;;;;;;;;;;21.10;48.70;;;;;;5082975;28;20316;-64
2022/10/17 03:10:22;;;;;;;;;;;21.10;48.60;;;;;;5070349;28;20023;-64
2022/10/17 03:12:50;;;;;;;;;;;21.10;48.70;;;;;;5067139;28;20015;-64
2022/10/17 03:15:17;;;;;;;;;;;21.10;48.70;;;;;;5068754;28;19948;-64
2022/10/17 03:17:44;;;;;;;;;;;21.10;48.70;;;;;;5066493;28;19936;-64
2022/10/17 03:20:11;;;;;;;;;;;21.10;48.70;;;;;;5064689;28;19971;-65
2022/10/17 03:22:39;;;;;;;;;;;21.10;48.70;;;;;;5083641;28;19971;-64
2022/10/17 03:25:06;;;;;;;;;;;21.10;48.70;;;;;;5068859;28;19927;-64
2022/10/17 03:27:32;;;;;;;;;;;21.10;48.70;;;;;;5082833;28;19931;-64
2022/10/17 03:30:00;;;;;;;;;;;21.10;48.70;;;;;;5069196;28;19924;-63
2022/10/17 03:32:27;;;;;;;;;;;21.10;48.70;;;;;;5069950;28;19927;-64
2022/10/17 03:34:54;;;;;;;;;;;21.10;48.70;;;;;;5068105;28;19943;-63
2022/10/17 03:37:21;;;;;;;;;;;21.10;48.70;;;;;;5081342;28;20444;-64
2022/10/17 03:39:47;;;;;;;;;;;21.10;48.70;;;;;;5085372;28;19963;-64
2022/10/17 03:42:14;;;;;;;;;;;21.10;48.70;;;;;;5084459;28;19979;-64
2022/10/17 03:44:40;;;;;;;;;;;21.10;48.70;;;;;;5068874;28;19924;-64
2022/10/17 03:47:09;;;;;;;;;;;21.10;48.70;;;;;;5065205;28;19936;-64
2022/10/17 03:49:35;;;;;;;;;;;21.10;48.70;;;;;;5070450;28;20393;-64
2022/10/17 03:52:02;;;;;;;;;;;21.10;48.70;;;;;;5066445;28;20330;-64
2022/10/17 03:54:29;;;;;;;;;;;21.10;48.70;;;;;;5069669;28;20019;-64
2022/10/17 03:56:55;;;;;;;;;;;21.10;48.80;;;;;;5065886;28;20314;-64
2022/10/17 03:59:22;;;;;;;;;;;21.10;48.70;;;;;;5068851;28;19990;-63
2022/10/17 04:01:48;;;;;;;;;;;21.10;48.80;;;;;;5066929;28;19921;-64
2022/10/17 04:04:17;;;;;;;;;;;21.10;48.80;;;;;;5068339;28;19963;-64
2022/10/17 04:06:43;;;;;;;;;;;21.10;48.80;;;;;;5065018;28;19920;-64
2022/10/17 04:09:10;;;;;;;;;;;21.10;48.80;;;;;;5084584;28;19970;-65
2022/10/17 04:11:37;;;;;;;;;;;21.10;48.80;;;;;;5067560;28;20325;-64
2022/10/17 04:14:03;;;;;;;;;;;21.10;48.70;;;;;;5084283;28;19920;-64
2022/10/17 04:16:30;;;;;;;;;;;21.10;48.80;;;;;;5066103;28;19920;-64
2022/10/17 04:18:57;;;;;;;;;;;21.10;48.80;;;;;;5067878;28;19924;-64
2022/10/17 04:21:25;;;;;;;;;;;21.10;48.80;;;;;;5085414;28;19960;-64
2022/10/17 04:23:55;;;;;;;;;;;21.10;48.80;;;;;;5065966;28;19924;-64
2022/10/17 04:26:25;;;;;;;;;;;21.10;48.80;;;;;;5067976;28;19920;-63
2022/10/17 04:28:51;;;;;;;;;;;21.10;48.80;;;;;;5064816;28;19963;-64
2022/10/17 04:31:18;;;;;;;;;;;21.10;48.80;;;;;;5069945;28;19943;-64
2022/10/17 04:33:48;;;;;;;;;;;21.10;48.80;;;;;;5065240;28;19986;-64
2022/10/17 04:36:15;;;;;;;;;;;21.10;48.80;;;;;;5081868;28;19924;-64
2022/10/17 04:38:43;;;;;;;;;;;21.10;48.80;;;;;;5065257;28;19971;-64
2022/10/17 04:41:11;;;;;;;;;;;21.10;48.80;;;;;;5068806;28;19921;-64
2022/10/17 04:43:37;;;;;;;;;;;21.10;48.90;;;;;;5064161;28;19982;-64
2022/10/17 04:46:05;;;;;;;;;;;21.10;48.80;;;;;;5067862;28;20007;-65
2022/10/17 04:48:32;;;;;;;;;;;21.10;48.80;;;;;;5066916;28;20318;-64
2022/10/17 04:50:59;;;;;;;;;;;21.10;48.80;;;;;;5085780;28;20228;-64
2022/10/17 04:53:25;;;;;;;;;;;21.10;48.80;;;;;;5068302;28;20471;-65
2022/10/17 04:55:53;;;;;;;;;;;21.10;48.80;;;;;;5068656;28;20007;-64
2022/10/17 04:58:20;;;;;;;;;;;21.10;48.80;;;;;;5072423;28;20011;-62
2022/10/17 05:00:47;;;;;;;;;;;21.10;48.80;;;;;;5071216;28;19975;-64
2022/10/17 05:03:13;;;;;;;;;;;21.10;48.80;;;;;;5085928;28;20003;-64
2022/10/17 05:05:40;;;;;;;;;;;21.10;48.80;;;;;;5071775;28;19920;-64
2022/10/17 05:08:07;;;;;;;;;;;21.10;48.80;;;;;;5070741;28;19993;-64
2022/10/17 05:10:36;;;;;;;;;;;21.10;48.90;;;;;;5086222;28;19970;-63
2022/10/17 05:13:04;;;;;;;;;;;21.10;48.80;;;;;;5068210;28;20006;-64
2022/10/17 05:15:30;;;;;;;;;;;21.10;48.80;;;;;;5088701;28;19963;-64
2022/10/17 05:17:57;;;;;;;;;;;21.10;48.80;;;;;;5087741;28;20011;-63
2022/10/17 05:20:24;;;;;;;;;;;21.10;48.90;;;;;;5072458;28;19989;-63
2022/10/17 05:22:54;;;;;;;;;;;21.10;48.90;;;;;;5068593;28;19966;-63
2022/10/17 05:25:20;;;;;;;;;;;21.10;48.90;;;;;;5087868;28;19974;-64
2022/10/17 05:27:47;;;;;;;;;;;21.10;48.80;;;;;;5070833;28;19947;-64
2022/10/17 05:30:15;;;;;;;;;;;21.10;48.80;;;;;;5088321;28;19921;-64
2022/10/17 05:32:42;;;;;;;;;;;21.10;48.80;;;;;;5068303;28;19928;-64
2022/10/17 05:35:09;;;;;;;;;;;21.10;48.90;;;;;;5072330;28;20393;-64
2022/10/17 05:37:38;;;;;;;;;;;21.10;48.90;;;;;;5070968;28;20358;-64
2022/10/17 05:40:05;;;;;;;;;;;21.10;48.80;;;;;;5087380;28;20362;-65
2022/10/17 05:42:32;;;;;;;;;;;21.10;48.80;;;;;;5070554;28;19952;-65
2022/10/17 05:44:59;;;;;;;;;;;21.10;48.90;;;;;;5091233;28;19927;-64
2022/10/17 05:47:27;;;;;;;;;;;21.10;48.80;;;;;;5071814;28;19920;-65
2022/10/17 05:49:54;;;;;;;;;;;21.10;48.80;;;;;;5070164;28;20405;-65
2022/10/17 05:52:20;;;;;;;;;;;21.10;48.80;;;;;;5067445;28;20018;-65
2022/10/17 05:54:47;;;;;;;;;;;21.10;48.80;;;;;;5069921;28;20366;-64
2022/10/17 05:57:14;;;;;;;;;;;21.10;48.80;;;;;;5066798;28;20011;-65
2022/10/17 05:59:40;;;;;;;;;;;21.10;48.80;;;;;;5070406;28;19969;-64
2022/10/17 06:02:07;;;;;;;;;;;21.10;48.80;;;;;;5069662;28;19920;-65
2022/10/17 06:04:36;;;;;;;;;;;21.10;48.80;;;;;;5071123;28;19974;-65
2022/10/17 06:07:03;;;;;;;;;;;21.10;48.80;;;;;;5086534;28;19971;-64
2022/10/17 06:09:40;;;;;;;;;;;21.10;48.80;;;;;;5071021;28;19932;-64
2022/10/17 06:12:07;;;;;;;;;;;21.10;48.80;;;;;;5070413;28;20015;-64
2022/10/17 06:14:34;;;;;;;;;;;21.10;48.80;;;;;;5068614;28;19921;-65
2022/10/17 06:17:00;;;;;;;;;;;21.10;48.80;;;;;;5083446;28;19921;-64
2022/10/17 06:19:27;;;;;;;;;;;21.10;48.80;;;;;;5086492;28;19920;-64
2022/10/17 06:24:38;;;;;;;;;;;21.10;48.70;;;;;;5064328;22;19974;-64
2022/10/17 06:27:07;;;;;;;;;;;21.10;48.80;;;;;;5046819;28;19927;-65
2022/10/17 06:29:33;;;;;;;;;;;21.10;48.80;;;;;;5057812;28;19927;-63
2022/10/17 06:32:00;;;;;;;;;;;21.10;48.80;;;;;;5036162;28;19927;-63
2022/10/17 06:34:27;;;;;;;;;;;21.10;48.80;;;;;;5049516;28;19951;-64
2022/10/17 06:36:53;;;;;;;;;;;21.10;48.80;;;;;;5066510;28;20496;-63
2022/10/17 06:39:20;;;;;;;;;;;21.10;48.80;;;;;;5056816;28;20032;-64
2022/10/17 06:41:48;;;;;;;;;;;21.10;48.80;;;;;;5043519;28;19928;-62
2022/10/17 06:44:16;;;;;;;;;;;21.10;48.80;;;;;;5038264;28;19920;-63
2022/10/17 06:46:43;;;;;;;;;;;21.10;48.80;;;;;;5041344;28;19933;-63
2022/10/17 06:49:10;;;;;;;;;;;21.10;48.80;;;;;;5041044;28;20011;-63
2022/10/17 06:51:37;;;;;;;;;;;21.10;48.80;;;;;;5036687;28;19998;-63
2022/10/17 06:54:03;;;;;;;;;;;21.10;48.80;;;;;;5039539;28;19964;-62
2022/10/17 06:56:30;;;;;;;;;;;21.10;48.80;;;;;;5026407;28;19949;-72
2022/10/17 06:58:58;;;;;;;;;;;21.10;48.80;;;;;;5021750;28;19933;-69
2022/10/17 07:01:25;;;;;;;;;;;21.10;48.80;;;;;;5027858;28;19933;-69
2022/10/17 07:03:52;;;;;;;;;;;21.10;48.80;;;;;;5020785;28;19939;-69
2022/10/17 07:06:19;;;;;;;;;;;21.10;48.70;;;;;;5020366;28;19991;-67
2022/10/17 07:08:45;;;;;;;;;;;21.10;48.70;;;;;;5037837;28;20039;-69
2022/10/17 07:11:13;;;;;;;;;;;21.10;48.80;;;;;;5035220;28;19928;-69
2022/10/17 07:13:39;;;;;;;;;;;21.10;48.80;;;;;;5047390;28;19987;-71
2022/10/17 07:16:07;;;;;;;;;;;21.10;48.80;;;;;;5056136;28;19928;-68
2022/10/17 07:18:34;;;;;;;;;;;21.10;48.80;;;;;;5039572;28;20003;-71
2022/10/17 07:21:02;;;;;;;;;;;21.10;48.80;;;;;;5061416;28;19920;-70
2022/10/17 07:23:29;;;;;;;;;;;21.10;48.80;;;;;;5043551;28;19951;-70
2022/10/17 07:25:59;;;;;;;;;;;21.10;48.80;;;;;;5060668;28;20026;-70
2022/10/17 07:28:25;;;;;;;;;;;21.10;48.90;;;;;;5046003;28;19964;-70
2022/10/17 07:30:52;;;;;;;;;;;21.10;48.90;;;;;;5042619;28;19984;-72
2022/10/17 07:33:20;;;;;;;;;;;21.10;48.90;;;;;;5062110;28;20381;-70
2022/10/17 07:35:47;;;;;;;;;;;21.10;49.00;;;;;;5039092;28;19948;-73
2022/10/17 07:38:13;;;;;;;;;;;21.10;49.00;;;;;;5039715;28;19921;-69
2022/10/17 07:40:40;;;;;;;;;;;21.10;49.00;;;;;;5047464;28;19925;-67
2022/10/17 07:43:07;;;;;;;;;;;21.10;49.00;;;;;;5040686;28;20008;-72
2022/10/17 07:45:34;;;;;;;;;;;21.10;49.10;;;;;;5063589;28;20051;-70
2022/10/17 07:48:00;;;;;;;;;;;21.10;49.10;;;;;;5039639;28;19982;-72
2022/10/17 07:50:30;;;;;;;;;;;21.10;49.10;;;;;;5068752;28;19944;-71
2022/10/17 07:52:57;;;;;;;;;;;21.10;49.10;;;;;;5065174;28;19920;-71
2022/10/17 07:55:23;;;;;;;;;;;21.10;49.20;;;;;;5064001;28;19928;-72
2022/10/17 07:57:50;;;;;;;;;;;21.20;49.30;;;;;;5043867;28;19955;-70
2022/10/17 08:00:17;;;;;;;;;;;21.20;49.30;;;;;;5041077;28;19964;-70
2022/10/17 08:02:43;;;;;;;;;;;21.20;49.40;;;;;;5049304;28;19925;-70
2022/10/17 08:05:10;;;;;;;;;;;21.20;49.40;;;;;;5064421;28;20039;-72
2022/10/17 08:07:40;;;;;;;;;;;21.20;49.40;;;;;;5039509;28;19944;-68
2022/10/17 08:10:07;;;;;;;;;;;21.20;49.40;;;;;;5039843;28;19944;-67
2022/10/17 08:12:33;;;;;;;;;;;21.20;49.40;;;;;;5059828;28;19920;-72
2022/10/17 08:15:00;;;;;;;;;;;21.20;49.50;;;;;;5059648;28;19927;-68
2022/10/17 08:17:27;;;;;;;;;;;21.20;49.50;;;;;;5037658;28;19921;-69
2022/10/17 08:19:54;;;;;;;;;;;21.20;49.50;;;;;;5041304;28;20027;-76
2022/10/17 08:22:20;;;;;;;;;;;21.20;49.70;;;;;;5030767;28;19948;-73
2022/10/17 08:24:48;;;;;;;;;;;21.20;49.60;;;;;;5041592;28;20008;-70
2022/10/17 08:27:20;;;;;;;;;;;21.20;49.60;;;;;;5036248;28;19920;-69
2022/10/17 08:29:47;;;;;;;;;;;21.20;49.70;;;;;;5029370;28;19932;-71
2022/10/17 08:32:14;;;;;;;;;;;21.20;49.70;;;;;;5032019;28;20015;-72
2022/10/17 08:34:41;;;;;;;;;;;21.20;49.70;;;;;;5049234;28;19921;-70
2022/10/17 08:37:07;;;;;;;;;;;21.20;49.80;;;;;;5032208;28;19967;-68
2022/10/17 08:39:34;;;;;;;;;;;21.20;50.40;;;;;;5048531;28;19959;-73
2022/10/17 08:42:06;;;;;;;;;;;21.20;49.80;;;;;;5030294;28;19921;-71
2022/10/17 08:44:36;;;;;;;;;;;21.20;49.90;;;;;;5028234;28;19925;-71
2022/10/17 08:47:04;;;;;;;;;;;21.20;49.90;;;;;;5039012;28;20393;-70
2022/10/17 08:49:33;;;;;;;;;;;21.20;49.90;;;;;;5050665;28;19920;-71
2022/10/17 08:52:03;;;;;;;;;;;21.20;49.90;;;;;;5032842;28;19971;-72
2022/10/17 08:54:32;;;;;;;;;;;21.30;50.00;;;;;;5038048;28;19956;-71
2022/10/17 08:56:58;;;;;;;;;;;21.30;50.00;;;;;;5032690;28;20016;-71
2022/10/17 08:59:27;;;;;;;;;;;21.30;50.00;;;;;;5032625;28;19921;-69
2022/10/17 09:01:55;;;;;;;;;;;21.30;50.00;;;;;;5031810;28;19986;-69
2022/10/17 09:04:31;;;;;;;;;;;21.30;50.00;;;;;;5035451;28;20013;-69
2022/10/17 09:07:00;;;;;;;;;;;21.30;50.10;;;;;;5031830;28;19967;-69
2022/10/17 09:09:29;;;;;;;;;;;21.30;50.10;;;;;;5035329;28;19921;-69
2022/10/17 09:11:59;;;;;;;;;;;21.30;50.10;;;;;;5047578;28;19975;-71
2022/10/17 09:14:44;;;;;;;;;;;21.30;50.10;;;;;;5050010;28;19921;-71
2022/10/17 09:17:19;;;;;;;;;;;21.30;50.10;;;;;;5051998;28;20073;-73
2022/10/17 09:19:49;;;;;;;;;;;21.30;50.20;;;;;;5052208;28;19931;-70
2022/10/17 09:22:16;;;;;;;;;;;21.30;50.20;;;;;;5039845;28;19979;-71
2022/10/17 09:24:44;;;;;;;;;;;21.30;50.20;;;;;;5059244;28;19971;-71
2022/10/17 09:27:16;;;;;;;;;;;21.30;50.80;;;;;;5065971;28;19921;-71
2022/10/17 09:29:44;;;;;;;;;;;21.30;50.20;;;;;;5041663;28;19921;-69
2022/10/17 09:32:11;;;;;;;;;;;21.30;50.20;;;;;;5045254;28;19947;-73
2022/10/17 09:34:38;;;;;;;;;;;21.30;50.20;;;;;;5042556;28;19920;-70
2022/10/17 09:37:06;;;;;;;;;;;21.30;50.20;;;;;;5041878;28;19920;-67
2022/10/17 09:39:33;;;;;;;;;;;21.30;50.20;;;;;;5044691;28;19974;-69
2022/10/17 09:42:00;;;;;;;;;;;21.40;50.30;;;;;;5044235;28;19933;-66
2022/10/17 09:44:29;;;;;;;;;;;21.40;50.30;;;;;;5048343;28;19933;-68
2022/10/17 09:47:04;;;;;;;;;;;21.40;50.30;;;;;;5042153;28;19920;-69
2022/10/17 09:49:31;;;;;;;;;;;21.40;50.40;;;;;;5039161;28;19988;-67
2022/10/17 09:51:58;;;;;;;;;;;21.40;50.40;;;;;;5042540;28;19920;-67
2022/10/17 09:54:26;;;;;;;;;;;21.40;50.40;;;;;;5038538;28;20015;-66
2022/10/17 09:56:56;;;;;;;;;;;21.40;50.40;;;;;;5037997;28;19960;-68
2022/10/17 09:59:29;;;;;;;;;;;21.40;50.60;;;;;;5038760;28;20024;-71
2022/10/17 10:01:59;;;;;;;;;;;21.40;50.60;;;;;;5042553;28;19925;-65
2022/10/17 10:04:27;;;;;;;;;;;21.40;50.50;;;;;;5059015;28;19921;-70
2022/10/17 10:07:00;;;;;;;;;;;21.40;50.50;;;;;;5043083;28;19971;-69
2022/10/17 10:09:28;;;;;;;;;;;21.40;50.60;;;;;;5039914;28;19967;-66
2022/10/17 10:11:55;;;;;;;;;;;21.50;50.60;;;;;;5039676;28;20324;-71
2022/10/17 10:14:22;;;;;;;;;;;21.50;50.60;;;;;;5044189;28;19920;-67
2022/10/17 10:16:49;;;;;;;;;;;21.50;50.60;;;;;;5040400;28;19927;-67
2022/10/17 10:19:19;;;;;;;;;;;21.50;50.60;;;;;;5040003;28;19921;-66
2022/10/17 10:21:54;;;;;;;;;;;21.50;50.60;;;;;;5041870;28;19946;-68
2022/10/17 10:24:21;;;;;;;;;;;21.50;50.60;;;;;;5061007;28;19987;-68
2022/10/17 10:26:49;;;;;;;;;;;21.50;50.60;;;;;;5042898;28;19925;-67
2022/10/17 10:29:20;;;;;;;;;;;21.50;50.70;;;;;;5058505;28;19921;-68
2022/10/17 10:31:46;;;;;;;;;;;21.50;50.70;;;;;;5059837;28;19927;-68
2022/10/17 10:34:18;;;;;;;;;;;21.50;50.70;;;;;;5056445;28;19932;-69
2022/10/17 10:36:46;;;;;;;;;;;21.50;50.70;;;;;;5046099;28;19920;-69
2022/10/17 10:39:19;;;;;;;;;;;21.50;50.80;;;;;;5040200;28;20062;-68
2022/10/17 10:41:46;;;;;;;;;;;21.50;50.80;;;;;;5038584;28;20014;-68
2022/10/17 10:44:13;;;;;;;;;;;21.50;50.80;;;;;;5036221;28;20004;-69
2022/10/17 10:46:40;;;;;;;;;;;21.50;51.40;;;;;;5040379;28;19921;-69
2022/10/17 10:49:08;;;;;;;;;;;21.60;51.20;;;;;;5052375;28;19921;-67
2022/10/17 10:51:35;;;;;;;;;;;21.60;50.90;;;;;;5038875;28;19931;-71
2022/10/17 10:54:03;;;;;;;;;;;21.60;50.90;;;;;;5041992;28;20381;-69
2022/10/17 10:56:33;;;;;;;;;;;21.60;50.90;;;;;;5035435;28;19941;-69
2022/10/17 10:59:01;;;;;;;;;;;21.60;51.00;;;;;;5040120;28;19929;-69
2022/10/17 11:01:29;;;;;;;;;;;21.60;51.10;;;;;;5040349;28;19921;-70
2022/10/17 11:04:12;;;;;;;;;;;21.60;51.20;;;;;;5033768;28;19983;-69
2022/10/17 11:06:39;;;;;;;;;;;21.60;51.30;;;;;;5027925;28;19921;-72
2022/10/17 11:09:12;;;;;;;;;;;21.60;51.40;;;;;;5048040;28;19964;-67
2022/10/17 11:11:41;;;;;;;;;;;21.60;51.50;;;;;;5027865;28;19920;-69
2022/10/17 11:14:10;;;;;;;;;;;21.60;51.60;;;;;;5025786;28;19933;-67
2022/10/17 11:16:37;;;;;;;;;;;21.60;51.80;;;;;;5032064;28;19944;-66
2022/10/17 11:19:06;;;;;;;;;;;21.60;52.00;;;;;;5040420;28;20210;-66
2022/10/17 11:21:36;;;;;;;;;;;21.60;52.10;;;;;;5040634;28;19967;-69
2022/10/17 11:24:04;;;;;;;;;;;21.60;52.40;;;;;;5036267;28;19952;-69
2022/10/17 11:26:32;;;;;;;;;;;21.60;52.50;;;;;;5032392;28;19948;-73
2022/10/17 11:29:15;;;;;;;;;;;21.60;52.60;;;;;;5112580;27;824184;-69
2022/10/17 11:31:43;;;;;;;;;;;21.60;52.70;;;;;;5113647;27;19934;-75
2022/10/17 11:34:10;;;;;;;;;;;21.60;52.70;;;;;;5113448;27;19920;-70
2022/10/17 11:36:38;;;;;;;;;;;21.60;52.80;;;;;;5118474;27;19972;-71
2022/10/17 11:39:05;;;;;;;;;;;21.60;52.90;;;;;;5117032;27;19920;-79
2022/10/17 11:41:32;;;;;;;;;;;21.60;53.00;;;;;;5138328;27;19946;-69
2022/10/17 11:43:59;;;;;;;;;;;21.60;53.10;;;;;;5115280;27;19966;-71
2022/10/17 11:46:28;;;;;;;;;;;21.60;53.00;;;;;;5111133;28;20023;-74
2022/10/17 11:49:00;;;;;;;;;;;21.60;53.10;;;;;;5096564;27;19920;-72
2022/10/17 11:51:27;;;;;;;;;;;21.60;53.10;;;;;;5114571;27;19923;-74
2022/10/17 11:53:56;;;;;;;;;;;21.60;53.10;;;;;;5116226;27;19958;-61
2022/10/17 11:56:25;;;;;;;;;;;21.60;53.10;;;;;;5119340;27;19930;-61
2022/10/17 11:58:53;;;;;;;;;;;21.60;53.20;;;;;;5119691;27;19919;-61
2022/10/17 12:01:22;;;;;;;;;;;21.70;53.20;;;;;;5111846;27;19963;-60
2022/10/17 12:03:56;;;;;;;;;;;21.70;53.20;;;;;;5116100;27;19919;-61
2022/10/17 12:06:25;;;;;;;;;;;21.70;53.10;;;;;;5114994;27;20012;-60
2022/10/17 12:08:53;;;;;;;;;;;21.70;53.10;;;;;;5138289;27;19923;-61
2022/10/17 12:11:28;;;;;;;;;;;21.70;53.00;;;;;;5116232;27;19924;-61
2022/10/17 12:13:55;;;;;;;;;;;21.70;53.00;;;;;;5107973;27;19920;-61
2022/10/17 12:16:38;;;;;;;;;;;21.70;53.00;;;;;;5112980;27;19962;-61
2022/10/17 12:19:23;;;;;;;;;;;21.70;52.90;;;;;;5112085;27;19927;-61
2022/10/17 12:21:56;;;;;;;;;;;21.70;52.90;;;;;;5118018;27;19969;-61
2022/10/17 12:24:27;;;;;;;;;;;21.70;52.90;;;;;;5134081;27;19919;-61
2022/10/17 12:26:54;;;;;;;;;;;21.70;52.80;;;;;;5121167;27;20045;-61
2022/10/17 12:29:23;;;;;;;;;;;21.70;52.80;;;;;;5135461;27;19927;-61
2022/10/17 12:31:50;;;;;;;;;;;21.70;52.80;;;;;;5110768;28;19919;-61
2022/10/17 12:34:17;;;;;;;;;;;21.70;52.80;;;;;;5109672;27;19920;-61
2022/10/17 12:36:47;;;;;;;;;;;21.70;52.80;;;;;;5134637;27;20015;-61
2022/10/17 12:39:33;;;;;;;;;;;21.70;52.70;;;;;;5129809;27;19955;-61
2022/10/17 12:42:02;;;;;;;;;;;21.70;52.80;;;;;;5121563;27;19939;-61
2022/10/17 12:44:35;;;;;;;;;;;21.80;52.80;;;;;;5101328;27;19920;-61
2022/10/17 12:47:17;;;;;;;;;;;21.80;52.80;;;;;;5104591;27;19919;-61
2022/10/17 12:49:44;;;;;;;;;;;21.80;52.80;;;;;;5100044;27;20019;-61
2022/10/17 12:52:25;;;;;;;;;;;21.80;52.80;;;;;;5105086;27;19928;-61
2022/10/17 12:55:01;;;;;;;;;;;21.80;52.80;;;;;;5100874;27;19988;-61
2022/10/17 12:57:32;;;;;;;;;;;21.80;52.80;;;;;;5098517;28;19954;-62
2022/10/17 13:00:00;;;;;;;;;;;21.80;52.80;;;;;;5102668;27;19923;-61
2022/10/17 13:02:27;;;;;;;;;;;21.80;52.80;;;;;;5098286;27;19920;-61
2022/10/17 13:04:55;;;;;;;;;;;21.80;52.80;;;;;;5104218;27;19920;-61
2022/10/17 13:07:22;;;;;;;;;;;21.80;52.80;;;;;;5104340;27;19973;-61
2022/10/17 13:09:49;;;;;;;;;;;21.80;52.80;;;;;;5115164;27;19973;-61
2022/10/17 13:12:18;;;;;;;;;;;21.80;52.80;;;;;;5102492;27;20361;-61
2022/10/17 13:14:45;;;;;;;;;;;21.80;52.80;;;;;;5100592;27;19927;-62
2022/10/17 13:17:20;;;;;;;;;;;21.80;52.80;;;;;;5105682;28;19927;-60
2022/10/17 13:19:47;;;;;;;;;;;21.80;52.80;;;;;;5106080;27;19919;-74
2022/10/17 13:22:15;;;;;;;;;;;21.80;52.80;;;;;;5105201;27;19919;-73
2022/10/17 13:24:41;;;;;;;;;;;21.80;52.80;;;;;;5101273;27;19920;-74
2022/10/17 13:27:23;;;;;;;;;;;21.80;52.80;;;;;;5104775;27;19923;-74
2022/10/17 13:29:50;;;;;;;;;;;21.80;52.90;;;;;;5118697;27;19974;-72
2022/10/17 13:32:16;;;;;;;;;;;21.80;52.90;;;;;;5104822;27;20376;-74
2022/10/17 13:34:43;;;;;;;;;;;21.80;52.90;;;;;;5118993;27;19920;-70
2022/10/17 13:37:10;;;;;;;;;;;21.80;53.00;;;;;;5097520;27;19968;-73
2022/10/17 13:39:38;;;;;;;;;;;21.80;53.00;;;;;;5098409;27;20408;-78
2022/10/17 13:42:05;;;;;;;;;;;21.80;53.00;;;;;;5096648;27;20006;-75
2022/10/17 13:44:33;;;;;;;;;;;21.80;53.10;;;;;;5120747;27;19931;-74
2022/10/17 13:47:00;;;;;;;;;;;21.80;53.10;;;;;;5101034;27;20369;-77
2022/10/17 13:49:29;;;;;;;;;;;21.80;53.10;;;;;;5098776;27;20052;-72
2022/10/17 13:51:56;;;;;;;;;;;21.80;53.20;;;;;;5102296;27;19920;-77
2022/10/17 13:54:30;;;;;;;;;;;21.80;53.20;;;;;;5101779;27;19976;-69
2022/10/17 13:56:57;;;;;;;;;;;21.80;53.20;;;;;;5101183;27;19954;-72
2022/10/17 13:59:25;;;;;;;;;;;21.80;53.20;;;;;;5096543;27;19943;-68
2022/10/17 14:01:53;;;;;;;;;;;21.80;53.20;;;;;;5092583;27;19931;-81
2022/10/17 14:04:20;;;;;;;;;;;21.80;53.20;;;;;;5107068;27;19919;-80
2022/10/17 14:06:47;;;;;;;;;;;21.80;53.30;;;;;;5096504;27;19924;-77
2022/10/17 14:09:17;;;;;;;;;;;21.80;53.40;;;;;;5119227;27;19926;-71
2022/10/17 14:11:44;;;;;;;;;;;21.80;53.40;;;;;;5100313;28;19969;-74
2022/10/17 14:14:16;;;;;;;;;;;21.80;53.40;;;;;;5098737;27;19928;-71
2022/10/17 14:16:43;;;;;;;;;;;21.80;53.50;;;;;;5099422;27;19919;-73
2022/10/17 14:19:16;;;;;;;;;;;21.90;53.60;;;;;;5095560;28;20213;-72
2022/10/17 14:21:43;;;;;;;;;;;21.80;53.60;;;;;;5099854;27;19920;-76
2022/10/17 14:24:14;;;;;;;;;;;21.80;53.60;;;;;;5100391;27;20002;-79
2022/10/17 14:26:47;;;;;;;;;;;21.80;53.70;;;;;;5098677;27;19919;-72